sensor_id;sensor_type;location;lat;lon;timestamp;temperature;humidity
18577;DHT22;9418;52.694;13.294;2023-03-11T00:00:20;0.90;61.90
18577;DHT22;9418;52.694;13.294;2023-03-11T00:02:48;0.90;62.50
18577;DHT22;9418;52.694;13.294;2023-03-11T00:05:17;0.80;63.10
18577;DHT22;9418;52.694;13.294;2023-03-11T00:07:44;0.80;63.10
18577;DHT22;9418;52.694;13.294;2023-03-11T00:10:13;0.80;63.40
18577;DHT22;9418;52.694;13.294;2023-03-11T00:12:40;0.80;63.80
18577;DHT22;9418;52.694;13.294;2023-03-11T00:15:08;0.70;63.80
18577;DHT22;9418;52.694;13.294;2023-03-11T00:17:36;0.70;64.00
18577;DHT22;9418;52.694;13.294;2023-03-11T00:20:03;0.70;64.40
18577;DHT22;9418;52.694;13.294;2023-03-11T00:22:30;0.70;64.50
18577;DHT22;9418;52.694;13.294;2023-03-11T00:24:57;0.60;65.80
18577;DHT22;9418;52.694;13.294;2023-03-11T00:27:23;0.70;66.20
18577;DHT22;9418;52.694;13.294;2023-03-11T00:29:50;0.60;65.50
18577;DHT22;9418;52.694;13.294;2023-03-11T00:32:17;0.70;66.10
18577;DHT22;9418;52.694;13.294;2023-03-11T00:34:44;0.70;66.70
18577;DHT22;9418;52.694;13.294;2023-03-11T00:37:11;0.70;66.90
18577;DHT22;9418;52.694;13.294;2023-03-11T00:39:38;0.60;66.60
18577;DHT22;9418;52.694;13.294;2023-03-11T00:42:04;0.60;66.30
18577;DHT22;9418;52.694;13.294;2023-03-11T00:44:32;0.60;67.40
18577;DHT22;9418;52.694;13.294;2023-03-11T00:46:58;0.60;66.50
18577;DHT22;9418;52.694;13.294;2023-03-11T00:49:25;0.60;66.80
18577;DHT22;9418;52.694;13.294;2023-03-11T00:51:53;0.60;67.00
18577;DHT22;9418;52.694;13.294;2023-03-11T00:54:19;0.60;67.10
18577;DHT22;9418;52.694;13.294;2023-03-11T00:56:46;0.60;67.00
18577;DHT22;9418;52.694;13.294;2023-03-11T00:59:12;0.60;66.80
18577;DHT22;9418;52.694;13.294;2023-03-11T01:01:39;0.60;66.80
18577;DHT22;9418;52.694;13.294;2023-03-11T01:04:05;0.60;65.80
18577;DHT22;9418;52.694;13.294;2023-03-11T01:06:32;0.70;66.40
18577;DHT22;9418;52.694;13.294;2023-03-11T01:09:00;0.70;65.20
18577;DHT22;9418;52.694;13.294;2023-03-11T01:11:26;0.70;65.70
18577;DHT22;9418;52.694;13.294;2023-03-11T01:13:53;0.60;66.20
18577;DHT22;9418;52.694;13.294;2023-03-11T01:16:20;0.70;66.80
18577;DHT22;9418;52.694;13.294;2023-03-11T01:18:46;0.60;66.50
18577;DHT22;9418;52.694;13.294;2023-03-11T01:21:13;0.60;67.10
18577;DHT22;9418;52.694;13.294;2023-03-11T01:23:40;0.60;68.00
18577;DHT22;9418;52.694;13.294;2023-03-11T01:26:08;0.60;67.70
18577;DHT22;9418;52.694;13.294;2023-03-11T01:28:35;0.70;68.60
18577;DHT22;9418;52.694;13.294;2023-03-11T01:31:01;0.70;69.20
18577;DHT22;9418;52.694;13.294;2023-03-11T01:33:28;0.60;68.90
18577;DHT22;9418;52.694;13.294;2023-03-11T01:35:55;0.60;69.30
18577;DHT22;9418;52.694;13.294;2023-03-11T01:38:21;0.60;68.70
18577;DHT22;9418;52.694;13.294;2023-03-11T01:40:50;0.70;68.40
18577;DHT22;9418;52.694;13.294;2023-03-11T01:43:38;0.70;66.60
18577;DHT22;9418;52.694;13.294;2023-03-11T01:46:10;0.60;67.30
18577;DHT22;9418;52.694;13.294;2023-03-11T01:48:37;0.70;66.50
18577;DHT22;9418;52.694;13.294;2023-03-11T01:51:04;0.70;66.70
18577;DHT22;9418;52.694;13.294;2023-03-11T01:53:31;0.60;66.90
18577;DHT22;9418;52.694;13.294;2023-03-11T01:55:59;0.70;67.10
18577;DHT22;9418;52.694;13.294;2023-03-11T01:58:31;0.70;66.70
18577;DHT22;9418;52.694;13.294;2023-03-11T02:01:01;0.70;66.40
18577;DHT22;9418;52.694;13.294;2023-03-11T02:03:30;0.70;63.90
18577;DHT22;9418;52.694;13.294;2023-03-11T02:06:00;0.70;65.70
18577;DHT22;9418;52.694;13.294;2023-03-11T02:08:27;0.70;65.20
18577;DHT22;9418;52.694;13.294;2023-03-11T02:10:58;0.70;64.20
18577;DHT22;9418;52.694;13.294;2023-03-11T02:13:26;0.70;65.30
18577;DHT22;9418;52.694;13.294;2023-03-11T02:15:53;0.70;64.20
18577;DHT22;9418;52.694;13.294;2023-03-11T02:18:21;0.70;63.90
18577;DHT22;9418;52.694;13.294;2023-03-11T02:20:53;0.70;63.70
18577;DHT22;9418;52.694;13.294;2023-03-11T02:23:25;0.70;62.20
18577;DHT22;9418;52.694;13.294;2023-03-11T02:25:59;0.70;63.40
18577;DHT22;9418;52.694;13.294;2023-03-11T02:28:30;0.70;62.30
18577;DHT22;9418;52.694;13.294;2023-03-11T02:30:57;0.70;61.80
18577;DHT22;9418;52.694;13.294;2023-03-11T02:33:27;0.70;62.60
18577;DHT22;9418;52.694;13.294;2023-03-11T02:35:55;0.70;62.50
18577;DHT22;9418;52.694;13.294;2023-03-11T02:38:22;0.70;62.40
18577;DHT22;9418;52.694;13.294;2023-03-11T02:40:52;0.70;62.50
18577;DHT22;9418;52.694;13.294;2023-03-11T02:43:24;0.70;62.90
18577;DHT22;9418;52.694;13.294;2023-03-11T02:45:55;0.70;62.50
18577;DHT22;9418;52.694;13.294;2023-03-11T02:48:22;0.70;61.90
18577;DHT22;9418;52.694;13.294;2023-03-11T02:50:49;0.70;61.70
18577;DHT22;9418;52.694;13.294;2023-03-11T02:53:16;0.70;61.70
18577;DHT22;9418;52.694;13.294;2023-03-11T02:55:43;0.70;61.50
18577;DHT22;9418;52.694;13.294;2023-03-11T02:58:09;0.70;61.10
18577;DHT22;9418;52.694;13.294;2023-03-11T03:00:36;0.70;61.30
18577;DHT22;9418;52.694;13.294;2023-03-11T03:03:04;0.70;61.20
18577;DHT22;9418;52.694;13.294;2023-03-11T03:05:30;0.70;60.80
18577;DHT22;9418;52.694;13.294;2023-03-11T03:07:57;0.70;61.50
18577;DHT22;9418;52.694;13.294;2023-03-11T03:10:24;0.70;61.70
18577;DHT22;9418;52.694;13.294;2023-03-11T03:12:50;0.70;62.10
18577;DHT22;9418;52.694;13.294;2023-03-11T03:15:17;0.70;61.50
18577;DHT22;9418;52.694;13.294;2023-03-11T03:17:44;0.60;62.20
18577;DHT22;9418;52.694;13.294;2023-03-11T03:20:13;0.60;63.40
18577;DHT22;9418;52.694;13.294;2023-03-11T03:22:41;0.60;64.00
18577;DHT22;9418;52.694;13.294;2023-03-11T03:25:09;0.60;64.30
18577;DHT22;9418;52.694;13.294;2023-03-11T03:27:36;0.60;65.70
18577;DHT22;9418;52.694;13.294;2023-03-11T03:30:04;0.60;65.80
18577;DHT22;9418;52.694;13.294;2023-03-11T03:32:31;0.60;66.00
18577;DHT22;9418;52.694;13.294;2023-03-11T03:34:57;0.60;66.30
18577;DHT22;9418;52.694;13.294;2023-03-11T03:37:26;0.60;66.60
18577;DHT22;9418;52.694;13.294;2023-03-11T03:39:53;0.60;66.30
18577;DHT22;9418;52.694;13.294;2023-03-11T03:42:20;0.70;65.90
18577;DHT22;9418;52.694;13.294;2023-03-11T03:44:49;0.60;66.30
18577;DHT22;9418;52.694;13.294;2023-03-11T03:47:16;0.60;66.20
18577;DHT22;9418;52.694;13.294;2023-03-11T03:49:43;0.60;65.40
18577;DHT22;9418;52.694;13.294;2023-03-11T03:52:09;0.60;65.70
18577;DHT22;9418;52.694;13.294;2023-03-11T03:54:37;0.60;65.40
18577;DHT22;9418;52.694;13.294;2023-03-11T03:57:04;0.60;65.10
18577;DHT22;9418;52.694;13.294;2023-03-11T03:59:31;0.60;65.00
18577;DHT22;9418;52.694;13.294;2023-03-11T04:01:57;0.60;64.20
18577;DHT22;9418;52.694;13.294;2023-03-11T04:04:24;0.60;65.30
18577;DHT22;9418;52.694;13.294;2023-03-11T04:06:50;0.60;65.50
18577;DHT22;9418;52.694;13.294;2023-03-11T04:09:17;0.60;66.00
18577;DHT22;9418;52.694;13.294;2023-03-11T04:11:45;0.60;66.40
18577;DHT22;9418;52.694;13.294;2023-03-11T04:14:12;0.60;66.70
18577;DHT22;9418;52.694;13.294;2023-03-11T04:16:39;0.60;67.60
18577;DHT22;9418;52.694;13.294;2023-03-11T04:19:05;0.60;65.90
18577;DHT22;9418;52.694;13.294;2023-03-11T04:21:32;0.60;64.30
18577;DHT22;9418;52.694;13.294;2023-03-11T04:23:59;0.60;65.50
18577;DHT22;9418;52.694;13.294;2023-03-11T04:26:26;0.60;65.90
18577;DHT22;9418;52.694;13.294;2023-03-11T04:28:54;0.60;66.50
18577;DHT22;9418;52.694;13.294;2023-03-11T04:31:21;0.60;66.30
18577;DHT22;9418;52.694;13.294;2023-03-11T04:33:47;0.60;66.20
18577;DHT22;9418;52.694;13.294;2023-03-11T04:36:14;0.60;65.90
18577;DHT22;9418;52.694;13.294;2023-03-11T04:38:40;0.60;66.70
18577;DHT22;9418;52.694;13.294;2023-03-11T04:41:07;0.60;66.70
18577;DHT22;9418;52.694;13.294;2023-03-11T04:43:34;0.70;66.40
18577;DHT22;9418;52.694;13.294;2023-03-11T04:46:02;0.60;65.70
18577;DHT22;9418;52.694;13.294;2023-03-11T04:48:29;0.60;64.90
18577;DHT22;9418;52.694;13.294;2023-03-11T04:50:55;0.60;61.70
18577;DHT22;9418;52.694;13.294;2023-03-11T04:53:22;0.60;61.90
18577;DHT22;9418;52.694;13.294;2023-03-11T04:55:49;0.60;62.10
18577;DHT22;9418;52.694;13.294;2023-03-11T04:58:17;0.60;61.80
18577;DHT22;9418;52.694;13.294;2023-03-11T05:00:44;0.60;62.00
18577;DHT22;9418;52.694;13.294;2023-03-11T05:03:12;0.60;61.60
18577;DHT22;9418;52.694;13.294;2023-03-11T05:05:39;0.60;61.60
18577;DHT22;9418;52.694;13.294;2023-03-11T05:08:05;0.70;61.10
18577;DHT22;9418;52.694;13.294;2023-03-11T05:10:32;0.60;60.40
18577;DHT22;9418;52.694;13.294;2023-03-11T05:12:59;0.60;60.80
18577;DHT22;9418;52.694;13.294;2023-03-11T05:15:25;0.60;60.20
18577;DHT22;9418;52.694;13.294;2023-03-11T05:17:53;0.60;60.00
18577;DHT22;9418;52.694;13.294;2023-03-11T05:20:21;0.70;60.30
18577;DHT22;9418;52.694;13.294;2023-03-11T05:22:47;0.60;60.20
18577;DHT22;9418;52.694;13.294;2023-03-11T05:25:14;0.60;60.10
18577;DHT22;9418;52.694;13.294;2023-03-11T05:27:41;0.60;60.20
18577;DHT22;9418;52.694;13.294;2023-03-11T05:30:08;0.60;60.30
18577;DHT22;9418;52.694;13.294;2023-03-11T05:32:35;0.60;60.30
18577;DHT22;9418;52.694;13.294;2023-03-11T05:35:02;0.60;60.00
18577;DHT22;9418;52.694;13.294;2023-03-11T05:37:31;0.60;60.80
18577;DHT22;9418;52.694;13.294;2023-03-11T05:39:57;0.60;60.60
18577;DHT22;9418;52.694;13.294;2023-03-11T05:42:24;0.70;60.70
18577;DHT22;9418;52.694;13.294;2023-03-11T05:44:51;0.70;59.10
18577;DHT22;9418;52.694;13.294;2023-03-11T05:47:17;0.70;58.70
18577;DHT22;9418;52.694;13.294;2023-03-11T05:49:46;0.70;57.70
18577;DHT22;9418;52.694;13.294;2023-03-11T05:52:12;0.60;57.90
18577;DHT22;9418;52.694;13.294;2023-03-11T05:54:40;0.60;58.10
18577;DHT22;9418;52.694;13.294;2023-03-11T05:57:07;0.60;58.90
18577;DHT22;9418;52.694;13.294;2023-03-11T05:59:34;0.60;59.10
18577;DHT22;9418;52.694;13.294;2023-03-11T06:02:02;0.60;59.90
18577;DHT22;9418;52.694;13.294;2023-03-11T06:04:28;0.60;60.10
18577;DHT22;9418;52.694;13.294;2023-03-11T06:06:55;0.60;60.40
18577;DHT22;9418;52.694;13.294;2023-03-11T06:09:22;0.60;60.30
18577;DHT22;9418;52.694;13.294;2023-03-11T06:11:49;0.70;59.80
18577;DHT22;9418;52.694;13.294;2023-03-11T06:14:16;0.60;58.00
18577;DHT22;9418;52.694;13.294;2023-03-11T06:16:43;0.60;58.90
18577;DHT22;9418;52.694;13.294;2023-03-11T06:19:09;0.60;58.60
18577;DHT22;9418;52.694;13.294;2023-03-11T06:21:36;0.60;58.50
18577;DHT22;9418;52.694;13.294;2023-03-11T06:24:03;0.70;57.90
18577;DHT22;9418;52.694;13.294;2023-03-11T06:26:30;0.60;56.00
18577;DHT22;9418;52.694;13.294;2023-03-11T06:28:57;0.70;55.70
18577;DHT22;9418;52.694;13.294;2023-03-11T06:31:26;0.70;55.30
18577;DHT22;9418;52.694;13.294;2023-03-11T06:33:53;0.70;54.50
18577;DHT22;9418;52.694;13.294;2023-03-11T06:36:21;0.70;54.10
18577;DHT22;9418;52.694;13.294;2023-03-11T06:38:50;0.70;53.50
18577;DHT22;9418;52.694;13.294;2023-03-11T06:41:17;0.80;53.50
18577;DHT22;9418;52.694;13.294;2023-03-11T06:43:44;0.80;53.30
18577;DHT22;9418;52.694;13.294;2023-03-11T06:46:14;0.70;55.00
18577;DHT22;9418;52.694;13.294;2023-03-11T06:48:42;0.80;53.60
18577;DHT22;9418;52.694;13.294;2023-03-11T06:51:09;0.80;53.80
18577;DHT22;9418;52.694;13.294;2023-03-11T06:53:36;0.80;55.50
18577;DHT22;9418;52.694;13.294;2023-03-11T06:56:05;0.80;56.60
18577;DHT22;9418;52.694;13.294;2023-03-11T06:58:33;0.80;58.80
18577;DHT22;9418;52.694;13.294;2023-03-11T07:01:01;0.80;60.30
18577;DHT22;9418;52.694;13.294;2023-03-11T07:03:29;0.70;64.50
18577;DHT22;9418;52.694;13.294;2023-03-11T07:05:56;0.70;70.90
18577;DHT22;9418;52.694;13.294;2023-03-11T07:08:24;0.70;73.60
18577;DHT22;9418;52.694;13.294;2023-03-11T07:11:03;0.70;76.10
18577;DHT22;9418;52.694;13.294;2023-03-11T07:13:30;0.80;71.40
18577;DHT22;9418;52.694;13.294;2023-03-11T07:16:02;0.70;71.40
18577;DHT22;9418;52.694;13.294;2023-03-11T07:18:31;0.80;74.50
18577;DHT22;9418;52.694;13.294;2023-03-11T07:20:57;0.80;80.10
18577;DHT22;9418;52.694;13.294;2023-03-11T07:23:24;0.80;78.40
18577;DHT22;9418;52.694;13.294;2023-03-11T07:25:50;0.70;91.40
18577;DHT22;9418;52.694;13.294;2023-03-11T07:28:20;0.80;86.80
18577;DHT22;9418;52.694;13.294;2023-03-11T07:30:46;0.80;90.50
18577;DHT22;9418;52.694;13.294;2023-03-11T07:33:14;0.80;96.40
18577;DHT22;9418;52.694;13.294;2023-03-11T07:35:43;0.90;94.30
18577;DHT22;9418;52.694;13.294;2023-03-11T07:38:10;0.80;99.90
18577;DHT22;9418;52.694;13.294;2023-03-11T07:40:36;1.00;95.50
18577;DHT22;9418;52.694;13.294;2023-03-11T07:43:03;1.10;99.90
18577;DHT22;9418;52.694;13.294;2023-03-11T07:45:29;1.20;99.90
18577;DHT22;9418;52.694;13.294;2023-03-11T07:47:56;1.20;99.90
18577;DHT22;9418;52.694;13.294;2023-03-11T07:50:23;1.30;99.90
18577;DHT22;9418;52.694;13.294;2023-03-11T07:52:51;1.40;99.90
18577;DHT22;9418;52.694;13.294;2023-03-11T07:55:17;1.40;99.90
18577;DHT22;9418;52.694;13.294;2023-03-11T07:57:46;1.40;99.90
18577;DHT22;9418;52.694;13.294;2023-03-11T08:00:13;1.30;99.90
18577;DHT22;9418;52.694;13.294;2023-03-11T08:02:40;1.60;99.90
18577;DHT22;9418;52.694;13.294;2023-03-11T08:05:08;1.70;99.90
18577;DHT22;9418;52.694;13.294;2023-03-11T08:07:34;1.60;99.90
18577;DHT22;9418;52.694;13.294;2023-03-11T08:10:02;1.60;99.90
18577;DHT22;9418;52.694;13.294;2023-03-11T08:12:29;1.70;99.90
18577;DHT22;9418;52.694;13.294;2023-03-11T08:14:56;1.60;99.90
18577;DHT22;9418;52.694;13.294;2023-03-11T08:17:22;1.80;99.90
18577;DHT22;9418;52.694;13.294;2023-03-11T08:19:49;2.50;1.40
18577;DHT22;9418;52.694;13.294;2023-03-11T08:22:16;2.60;99.90
18577;DHT22;9418;52.694;13.294;2023-03-11T08:24:42;2.80;99.90
18577;DHT22;9418;52.694;13.294;2023-03-11T08:27:10;2.90;99.90
18577;DHT22;9418;52.694;13.294;2023-03-11T08:29:37;2.70;99.90
18577;DHT22;9418;52.694;13.294;2023-03-11T08:32:04;2.10;99.90
18577;DHT22;9418;52.694;13.294;2023-03-11T08:34:31;2.10;99.90
18577;DHT22;9418;52.694;13.294;2023-03-11T08:36:59;1.70;99.90
18577;DHT22;9418;52.694;13.294;2023-03-11T08:39:26;1.70;99.90
18577;DHT22;9418;52.694;13.294;2023-03-11T08:41:52;1.80;99.90
18577;DHT22;9418;52.694;13.294;2023-03-11T08:44:20;1.90;99.90
18577;DHT22;9418;52.694;13.294;2023-03-11T08:46:47;1.70;99.90
18577;DHT22;9418;52.694;13.294;2023-03-11T08:49:13;1.70;99.90
18577;DHT22;9418;52.694;13.294;2023-03-11T08:51:40;1.50;99.90
18577;DHT22;9418;52.694;13.294;2023-03-11T08:54:07;1.70;99.90
18577;DHT22;9418;52.694;13.294;2023-03-11T08:56:34;1.90;99.90
18577;DHT22;9418;52.694;13.294;2023-03-11T08:59:01;1.80;99.90
18577;DHT22;9418;52.694;13.294;2023-03-11T09:01:29;1.50;99.90
18577;DHT22;9418;52.694;13.294;2023-03-11T09:03:55;1.90;99.90
18577;DHT22;9418;52.694;13.294;2023-03-11T09:06:22;2.00;99.90
18577;DHT22;9418;52.694;13.294;2023-03-11T09:08:50;2.10;99.90
18577;DHT22;9418;52.694;13.294;2023-03-11T09:11:18;2.10;99.90
18577;DHT22;9418;52.694;13.294;2023-03-11T09:13:47;1.80;99.90
18577;DHT22;9418;52.694;13.294;2023-03-11T09:16:16;2.20;99.90
18577;DHT22;9418;52.694;13.294;2023-03-11T09:18:44;2.20;99.90
18577;DHT22;9418;52.694;13.294;2023-03-11T09:21:11;2.20;99.90
18577;DHT22;9418;52.694;13.294;2023-03-11T09:23:38;2.00;99.90
18577;DHT22;9418;52.694;13.294;2023-03-11T09:26:04;2.20;99.90
18577;DHT22;9418;52.694;13.294;2023-03-11T09:28:31;2.00;99.90
18577;DHT22;9418;52.694;13.294;2023-03-11T09:30:58;2.30;99.90
18577;DHT22;9418;52.694;13.294;2023-03-11T09:33:24;2.60;99.90
18577;DHT22;9418;52.694;13.294;2023-03-11T09:35:52;2.30;99.90
18577;DHT22;9418;52.694;13.294;2023-03-11T09:38:19;2.10;99.90
18577;DHT22;9418;52.694;13.294;2023-03-11T09:40:52;2.30;99.90
18577;DHT22;9418;52.694;13.294;2023-03-11T09:43:28;2.00;99.90
18577;DHT22;9418;52.694;13.294;2023-03-11T09:46:03;1.70;99.90
18577;DHT22;9418;52.694;13.294;2023-03-11T09:48:34;1.80;99.90
18577;DHT22;9418;52.694;13.294;2023-03-11T09:51:08;1.80;99.90
18577;DHT22;9418;52.694;13.294;2023-03-11T09:53:39;1.90;99.90
18577;DHT22;9418;52.694;13.294;2023-03-11T09:56:08;1.90;99.90
18577;DHT22;9418;52.694;13.294;2023-03-11T09:58:37;1.70;99.90
18577;DHT22;9418;52.694;13.294;2023-03-11T10:01:13;1.80;99.90
18577;DHT22;9418;52.694;13.294;2023-03-11T10:03:40;1.90;99.90
18577;DHT22;9418;52.694;13.294;2023-03-11T10:06:14;1.90;99.90
18577;DHT22;9418;52.694;13.294;2023-03-11T10:08:44;2.00;99.90
18577;DHT22;9418;52.694;13.294;2023-03-11T10:11:22;1.90;99.90
18577;DHT22;9418;52.694;13.294;2023-03-11T10:13:59;2.00;99.90
18577;DHT22;9418;52.694;13.294;2023-03-11T10:16:33;2.10;99.90
18577;DHT22;9418;52.694;13.294;2023-03-11T10:19:10;1.90;99.90
18577;DHT22;9418;52.694;13.294;2023-03-11T10:21:49;2.10;99.90
18577;DHT22;9418;52.694;13.294;2023-03-11T10:24:39;2.00;99.90
18577;DHT22;9418;52.694;13.294;2023-03-11T10:27:10;1.90;99.90
18577;DHT22;9418;52.694;13.294;2023-03-11T10:29:47;1.70;99.90
18577;DHT22;9418;52.694;13.294;2023-03-11T10:32:19;1.80;99.90
18577;DHT22;9418;52.694;13.294;2023-03-11T10:34:54;1.90;99.90
18577;DHT22;9418;52.694;13.294;2023-03-11T10:37:26;1.90;99.90
18577;DHT22;9418;52.694;13.294;2023-03-11T10:39:53;1.70;99.90
18577;DHT22;9418;52.694;13.294;2023-03-11T10:42:22;1.60;99.90
18577;DHT22;9418;52.694;13.294;2023-03-11T10:44:50;1.60;99.90
18577;DHT22;9418;52.694;13.294;2023-03-11T10:47:18;1.70;99.90
18577;DHT22;9418;52.694;13.294;2023-03-11T10:49:45;1.70;99.90
18577;DHT22;9418;52.694;13.294;2023-03-11T10:52:12;1.80;99.90
18577;DHT22;9418;52.694;13.294;2023-03-11T10:54:42;1.90;99.90
18577;DHT22;9418;52.694;13.294;2023-03-11T10:57:22;2.40;99.90
18577;DHT22;9418;52.694;13.294;2023-03-11T10:59:51;3.50;99.90
18577;DHT22;9418;52.694;13.294;2023-03-11T11:02:23;3.80;34.50
18577;DHT22;9418;52.694;13.294;2023-03-11T11:05:22;2.90;62.50
18577;DHT22;9418;52.694;13.294;2023-03-11T11:07:51;2.70;56.40
18577;DHT22;9418;52.694;13.294;2023-03-11T11:10:30;2.70;27.30
18577;DHT22;9418;52.694;13.294;2023-03-11T11:12:58;2.70;99.40
18577;DHT22;9418;52.694;13.294;2023-03-11T11:15:29;2.60;81.30
18577;DHT22;9418;52.694;13.294;2023-03-11T11:17:58;2.60;99.90
18577;DHT22;9418;52.694;13.294;2023-03-11T11:20:26;2.50;99.90
18577;DHT22;9418;52.694;13.294;2023-03-11T11:22:55;2.60;21.40
18577;DHT22;9418;52.694;13.294;2023-03-11T11:25:27;2.30;28.90
18577;DHT22;9418;52.694;13.294;2023-03-11T11:27:57;2.90;99.90
18577;DHT22;9418;52.694;13.294;2023-03-11T11:30:25;3.00;99.90
18577;DHT22;9418;52.694;13.294;2023-03-11T11:32:53;2.60;33.90
18577;DHT22;9418;52.694;13.294;2023-03-11T11:35:21;2.70;26.00
18577;DHT22;9418;52.694;13.294;2023-03-11T11:37:49;2.60;37.70
18577;DHT22;9418;52.694;13.294;2023-03-11T11:40:23;2.30;28.40
18577;DHT22;9418;52.694;13.294;2023-03-11T11:42:52;2.30;36.80
18577;DHT22;9418;52.694;13.294;2023-03-11T11:45:26;2.50;21.40
18577;DHT22;9418;52.694;13.294;2023-03-11T11:47:58;2.40;99.90
18577;DHT22;9418;52.694;13.294;2023-03-11T11:50:28;2.60;99.90
18577;DHT22;9418;52.694;13.294;2023-03-11T11:53:03;2.60;99.90
18577;DHT22;9418;52.694;13.294;2023-03-11T11:55:32;2.40;99.90
18577;DHT22;9418;52.694;13.294;2023-03-11T11:57:59;2.10;57.10
18577;DHT22;9418;52.694;13.294;2023-03-11T12:00:33;2.60;99.90
18577;DHT22;9418;52.694;13.294;2023-03-11T12:03:24;2.70;25.80
18577;DHT22;9418;52.694;13.294;2023-03-11T12:05:55;3.20;99.90
18577;DHT22;9418;52.694;13.294;2023-03-11T12:08:27;3.30;42.60
18577;DHT22;9418;52.694;13.294;2023-03-11T12:10:59;3.30;60.30
18577;DHT22;9418;52.694;13.294;2023-03-11T12:13:44;3.10;46.50
18577;DHT22;9418;52.694;13.294;2023-03-11T12:16:22;2.90;49.20
18577;DHT22;9418;52.694;13.294;2023-03-11T12:18:55;2.50;48.90
18577;DHT22;9418;52.694;13.294;2023-03-11T12:21:34;2.50;24.60
18577;DHT22;9418;52.694;13.294;2023-03-11T12:24:16;2.20;27.50
18577;DHT22;9418;52.694;13.294;2023-03-11T12:26:46;2.20;99.90
18577;DHT22;9418;52.694;13.294;2023-03-11T12:29:23;2.10;77.60
18577;DHT22;9418;52.694;13.294;2023-03-11T12:31:53;2.20;99.60
18577;DHT22;9418;52.694;13.294;2023-03-11T12:34:21;2.30;24.10
18577;DHT22;9418;52.694;13.294;2023-03-11T12:36:50;2.40;46.00
18577;DHT22;9418;52.694;13.294;2023-03-11T12:39:21;2.60;33.20
18577;DHT22;9418;52.694;13.294;2023-03-11T12:42:16;2.60;45.30
18577;DHT22;9418;52.694;13.294;2023-03-11T12:44:44;2.70;65.90
18577;DHT22;9418;52.694;13.294;2023-03-11T12:47:30;2.80;74.40
18577;DHT22;9418;52.694;13.294;2023-03-11T12:52:56;3.10;99.90
18577;DHT22;9418;52.694;13.294;2023-03-11T12:55:33;2.90;21.90
18577;DHT22;9418;52.694;13.294;2023-03-11T13:01:14;3.00;99.90
18577;DHT22;9418;52.694;13.294;2023-03-11T13:03:59;3.90;99.90
18577;DHT22;9418;52.694;13.294;2023-03-11T13:06:46;5.40;61.40
18577;DHT22;9418;52.694;13.294;2023-03-11T13:09:17;6.30;99.90
18577;DHT22;9418;52.694;13.294;2023-03-11T13:11:45;6.40;99.90
18577;DHT22;9418;52.694;13.294;2023-03-11T13:14:25;5.90;99.90
18577;DHT22;9418;52.694;13.294;2023-03-11T13:16:54;5.70;99.90
18577;DHT22;9418;52.694;13.294;2023-03-11T13:19:48;4.20;87.20
18577;DHT22;9418;52.694;13.294;2023-03-11T13:22:38;3.80;76.70
18577;DHT22;9418;52.694;13.294;2023-03-11T13:25:26;3.50;87.10
18577;DHT22;9418;52.694;13.294;2023-03-11T13:27:59;3.70;73.10
18577;DHT22;9418;52.694;13.294;2023-03-11T13:30:32;3.60;68.00
18577;DHT22;9418;52.694;13.294;2023-03-11T13:33:16;3.50;76.00
18577;DHT22;9418;52.694;13.294;2023-03-11T13:35:58;3.10;77.50
18577;DHT22;9418;52.694;13.294;2023-03-11T13:38:44;3.10;78.60
18577;DHT22;9418;52.694;13.294;2023-03-11T13:41:16;3.00;71.40
18577;DHT22;9418;52.694;13.294;2023-03-11T13:43:47;3.30;80.90
18577;DHT22;9418;52.694;13.294;2023-03-11T13:46:23;3.90;80.10
18577;DHT22;9418;52.694;13.294;2023-03-11T13:48:55;4.30;83.90
18577;DHT22;9418;52.694;13.294;2023-03-11T13:51:29;5.00;97.10
18577;DHT22;9418;52.694;13.294;2023-03-11T13:53:59;6.30;99.90
18577;DHT22;9418;52.694;13.294;2023-03-11T13:56:31;6.40;99.90
18577;DHT22;9418;52.694;13.294;2023-03-11T13:59:16;6.50;99.90
18577;DHT22;9418;52.694;13.294;2023-03-11T14:01:48;6.10;99.90
18577;DHT22;9418;52.694;13.294;2023-03-11T14:04:18;5.20;99.90
18577;DHT22;9418;52.694;13.294;2023-03-11T14:06:47;4.20;99.90
18577;DHT22;9418;52.694;13.294;2023-03-11T14:09:18;3.70;99.90
18577;DHT22;9418;52.694;13.294;2023-03-11T14:11:46;3.60;99.90
18577;DHT22;9418;52.694;13.294;2023-03-11T14:14:38;3.40;99.90
18577;DHT22;9418;52.694;13.294;2023-03-11T14:17:13;3.20;99.90
18577;DHT22;9418;52.694;13.294;2023-03-11T14:19:40;2.90;99.90
18577;DHT22;9418;52.694;13.294;2023-03-11T14:22:09;2.70;93.10
18577;DHT22;9418;52.694;13.294;2023-03-11T14:24:36;2.60;92.20
18577;DHT22;9418;52.694;13.294;2023-03-11T14:27:08;2.40;98.90
18577;DHT22;9418;52.694;13.294;2023-03-11T14:29:36;2.30;88.60
18577;DHT22;9418;52.694;13.294;2023-03-11T14:32:24;2.30;90.50
18577;DHT22;9418;52.694;13.294;2023-03-11T14:34:51;2.20;82.80
18577;DHT22;9418;52.694;13.294;2023-03-11T14:37:29;2.40;83.80
18577;DHT22;9418;52.694;13.294;2023-03-11T14:39:56;2.30;89.00
18577;DHT22;9418;52.694;13.294;2023-03-11T14:42:24;2.40;79.70
18577;DHT22;9418;52.694;13.294;2023-03-11T14:44:57;2.30;77.20
18577;DHT22;9418;52.694;13.294;2023-03-11T14:47:32;2.10;76.90
18577;DHT22;9418;52.694;13.294;2023-03-11T14:50:02;2.20;77.40
18577;DHT22;9418;52.694;13.294;2023-03-11T14:52:33;2.10;64.50
18577;DHT22;9418;52.694;13.294;2023-03-11T14:55:04;2.10;73.40
18577;DHT22;9418;52.694;13.294;2023-03-11T14:57:36;2.00;80.30
18577;DHT22;9418;52.694;13.294;2023-03-11T15:00:04;2.00;69.50
18577;DHT22;9418;52.694;13.294;2023-03-11T15:02:48;2.00;74.60
18577;DHT22;9418;52.694;13.294;2023-03-11T15:05:20;2.00;82.30
18577;DHT22;9418;52.694;13.294;2023-03-11T15:07:57;2.20;80.50
18577;DHT22;9418;52.694;13.294;2023-03-11T15:10:25;2.50;89.80
18577;DHT22;9418;52.694;13.294;2023-03-11T15:13:04;2.90;85.30
18577;DHT22;9418;52.694;13.294;2023-03-11T15:15:31;3.10;99.90
18577;DHT22;9418;52.694;13.294;2023-03-11T15:17:59;3.00;99.90
18577;DHT22;9418;52.694;13.294;2023-03-11T15:20:27;3.30;99.90
18577;DHT22;9418;52.694;13.294;2023-03-11T15:22:58;3.20;99.90
18577;DHT22;9418;52.694;13.294;2023-03-11T15:25:27;3.60;99.90
18577;DHT22;9418;52.694;13.294;2023-03-11T15:27:54;3.40;99.90
18577;DHT22;9418;52.694;13.294;2023-03-11T15:30:23;3.40;99.90
18577;DHT22;9418;52.694;13.294;2023-03-11T15:32:50;4.00;99.90
18577;DHT22;9418;52.694;13.294;2023-03-11T15:35:19;4.20;99.90
18577;DHT22;9418;52.694;13.294;2023-03-11T15:37:48;4.60;99.90
18577;DHT22;9418;52.694;13.294;2023-03-11T15:40:22;4.80;99.90
18577;DHT22;9418;52.694;13.294;2023-03-11T15:43:02;4.60;99.90
18577;DHT22;9418;52.694;13.294;2023-03-11T15:45:32;4.10;99.90
18577;DHT22;9418;52.694;13.294;2023-03-11T15:47:59;3.50;99.90
18577;DHT22;9418;52.694;13.294;2023-03-11T15:50:26;3.30;99.90
18577;DHT22;9418;52.694;13.294;2023-03-11T15:52:54;3.10;99.90
18577;DHT22;9418;52.694;13.294;2023-03-11T15:55:24;2.80;99.90
18577;DHT22;9418;52.694;13.294;2023-03-11T15:57:57;2.70;99.90
18577;DHT22;9418;52.694;13.294;2023-03-11T16:00:25;2.60;99.90
18577;DHT22;9418;52.694;13.294;2023-03-11T16:02:52;2.50;99.90
18577;DHT22;9418;52.694;13.294;2023-03-11T16:05:22;2.50;99.90